HE31 weather

Malan Frein Airport
Matruh Governorate, Egypt

Public forecast

Using degrees Celsius for public forecast. Weather courtesy of forecast.io.

METAR (pilot weather report)

Report is more than 6 hours old.

Closest report is El Alamein International Airport, 67.0 nm (124.1 km) N. Retrieved 2018/04/01 02:00 UTC (12 months ago):

HEAL 010200Z 00000KT CAVOK 17/07 Q1010 NOSIG

TAF (pilot weather forecast)

Forecast is more than 12 hours old.

Closest forecast is El Alamein International Airport, 67.0 nm (124.1 km) N. Retrieved 2019/03/21 18:00 UTC (2 days ago):

TAF HEAL 211718Z 2118/2224 02007KT CAVOK